»·PEaware :: N3452E KSFO-KPHX

N3452E :: KSFO-KPHX

FLIGHT INFORMATION

Flight Status: Arrived
Operator: Privately registered:
United States
More flights under this callsign
Pilot: John C. (27555)
Aircraft: CANADAIR CL-600 CHALLENGER
(CL60)
More flights by this aircraft type
Origin: KSFO San Francisco Intl
United States
Destination: KPHX Phoenix Sky Harbor Intl
United States
More flights between these airports :: More routes between these airports
Route: WESLA5 KAYEX EHF J65 BLH HYDRR1
File this flight plan on PilotEdge
Remarks:
Altitude:
(Current/Filed)
39,000ft
Speed:
(Current/Filed)
473kts
Departed: 19-Aug-22 05:46 PM
Arrived: 19-Aug-22 07:16 PM
Distance/Time
Traveled:
564nm/1:29
Distance/Time
To Go:
Arrived

Flight Plot

Page will automatically refresh every two minutes.

Flight plan parsing failed; only flown route is shown


Map Options




Map Legend


Flown Route
Filed Route
Departure Airport
Arrival Airport
Navaid (VOR, NDB)
Fix

Horizontal Profiles

Position Reports

Time Latitude Longitude Heading Altitude Ground
Speed
19-Aug-22 17:27 37.627643 -122.383089 300 16ft 0kts
19-Aug-22 17:28 37.627643 -122.383089 300 16ft 0kts
19-Aug-22 17:29 37.627643 -122.383089 300 16ft 0kts
19-Aug-22 17:30 37.627643 -122.383089 300 16ft 0kts
19-Aug-22 17:31 37.627643 -122.383089 300 16ft 0kts
19-Aug-22 17:32 37.627643 -122.383089 300 16ft 0kts
19-Aug-22 17:33 37.627643 -122.383089 300 16ft 0kts
19-Aug-22 17:34 37.627643 -122.383089 300 16ft 0kts
19-Aug-22 17:35 37.627643 -122.383089 300 16ft 0kts
19-Aug-22 17:36 37.627643 -122.383089 300 16ft 0kts
19-Aug-22 17:37 37.627643 -122.383089 300 16ft 0kts
19-Aug-22 17:38 37.627643 -122.383089 300 16ft 0kts
19-Aug-22 17:39 37.627643 -122.383089 300 16ft 0kts
19-Aug-22 17:40 37.627081 -122.383332 145 17ft 7kts
19-Aug-22 17:41 37.625005 -122.380739 116 24ft 15kts
19-Aug-22 17:42 37.622068 -122.373751 117 15ft 29kts
19-Aug-22 17:43 37.617787 -122.363494 118 10ft 28kts
19-Aug-22 17:44 37.615048 -122.357069 127 8ft 10kts
19-Aug-22 17:45 37.619143 -122.370569 299 127ft 163kts
19-Aug-22 17:46 37.644099 -122.431063 297 2180ft 200kts
19-Aug-22 17:47 37.670197 -122.499990 274 5225ft 233kts
19-Aug-22 17:48 37.619652 -122.534455 157 8397ft 262kts
19-Aug-22 17:49 37.549764 -122.499794 162 11936ft 276kts
19-Aug-22 17:50 37.477961 -122.456468 130 15562ft 296kts
19-Aug-22 17:51 37.424601 -122.372932 128 18852ft 318kts
19-Aug-22 17:52 37.367293 -122.283775 128 21832ft 338kts
19-Aug-22 17:53 37.306448 -122.189519 128 24503ft 357kts
19-Aug-22 17:54 37.242975 -122.091492 128 27113ft 366kts
19-Aug-22 17:55 37.177805 -121.991185 128 29396ft 376kts
19-Aug-22 17:56 37.110910 -121.888548 128 31371ft 386kts
19-Aug-22 17:57 37.042378 -121.783481 129 33170ft 393kts
19-Aug-22 17:58 36.972745 -121.677137 129 34944ft 393kts
19-Aug-22 17:59 36.903560 -121.571930 129 36541ft 390kts
19-Aug-22 18:00 36.834579 -121.467422 129 37840ft 388kts
19-Aug-22 18:01 36.765990 -121.363840 129 38863ft 388kts
19-Aug-22 18:02 36.695080 -121.257069 130 38938ft 413kts
19-Aug-22 18:03 36.618884 -121.142621 130 38922ft 443kts
19-Aug-22 18:04 36.537856 -121.021300 130 38889ft 468kts
19-Aug-22 18:05 36.457350 -120.888516 123 38864ft 489kts
19-Aug-22 18:06 36.382150 -120.746258 123 38869ft 495kts
19-Aug-22 18:07 36.306342 -120.603512 123 38872ft 493kts
19-Aug-22 18:08 36.230568 -120.461499 123 38872ft 493kts
19-Aug-22 18:09 36.154512 -120.319552 124 38872ft 494kts
19-Aug-22 18:10 36.078170 -120.177685 124 38870ft 494kts
19-Aug-22 18:11 36.001830 -120.036426 124 38867ft 494kts
19-Aug-22 18:12 35.925093 -119.895059 124 38866ft 495kts
19-Aug-22 18:13 35.848185 -119.753932 124 38864ft 496kts
19-Aug-22 18:14 35.770987 -119.612845 124 38865ft 496kts
19-Aug-22 18:15 35.693645 -119.472079 125 38869ft 496kts
19-Aug-22 18:16 35.616125 -119.331565 126 38865ft 497kts
19-Aug-22 18:17 35.538030 -119.190593 126 38867ft 498kts
19-Aug-22 18:18 35.450691 -119.060083 137 38897ft 494kts
19-Aug-22 18:19 35.346513 -118.950473 143 38979ft 492kts
19-Aug-22 18:20 35.240523 -118.843877 143 39033ft 493kts
19-Aug-22 18:21 35.134857 -118.737352 143 39053ft 493kts
19-Aug-22 18:22 35.030057 -118.629850 139 39075ft 494kts
19-Aug-22 18:23 34.937819 -118.504235 132 39051ft 498kts
19-Aug-22 18:24 34.848645 -118.374749 132 39050ft 498kts
19-Aug-22 18:25 34.759415 -118.245621 133 38995ft 498kts
19-Aug-22 18:26 34.670370 -118.116775 131 38974ft 498kts
19-Aug-22 18:27 34.605194 -117.966832 113 38962ft 507kts
19-Aug-22 18:28 34.556440 -117.805597 112 38944ft 509kts
19-Aug-22 18:29 34.507662 -117.644235 112 38946ft 509kts
19-Aug-22 18:30 34.458874 -117.483217 112 38954ft 509kts
19-Aug-22 18:31 34.409893 -117.322266 113 38949ft 509kts
19-Aug-22 18:32 34.360929 -117.162058 113 38951ft 508kts
19-Aug-22 18:33 34.311639 -117.001555 113 38982ft 508kts
19-Aug-22 18:34 34.262292 -116.841465 113 39017ft 508kts
19-Aug-22 18:35 34.212532 -116.680819 113 38988ft 509kts
19-Aug-22 18:36 34.162680 -116.520753 113 38935ft 509kts
19-Aug-22 18:37 34.112574 -116.360858 113 38884ft 508kts
19-Aug-22 18:38 34.062417 -116.201601 114 38848ft 507kts
19-Aug-22 18:39 34.011943 -116.042161 114 38851ft 508kts
19-Aug-22 18:40 33.961469 -115.883497 114 38851ft 508kts
19-Aug-22 18:41 33.910587 -115.724357 113 38852ft 508kts
19-Aug-22 18:42 33.859717 -115.566054 113 38852ft 507kts
19-Aug-22 18:43 33.808632 -115.408000 113 38852ft 506kts
19-Aug-22 18:44 33.756962 -115.249004 114 38850ft 505kts
19-Aug-22 18:45 33.705651 -115.091837 114 38842ft 504kts
19-Aug-22 18:46 33.654387 -114.935566 114 38791ft 504kts
19-Aug-22 18:47 33.602305 -114.777635 113 36196ft 504kts
19-Aug-22 18:48 33.567042 -114.613986 104 33488ft 509kts
19-Aug-22 18:49 33.535790 -114.451115 104 30827ft 487kts
19-Aug-22 18:50 33.505703 -114.297516 104 28309ft 461kts
19-Aug-22 18:51 33.476654 -114.150576 103 25921ft 442kts
19-Aug-22 18:52 33.448574 -114.009920 102 24279ft 423kts
19-Aug-22 18:53 33.420935 -113.872144 102 23079ft 418kts
19-Aug-22 18:54 33.393850 -113.737772 102 21684ft 407kts
19-Aug-22 18:55 33.367261 -113.606715 102 20327ft 397kts
19-Aug-22 18:56 33.341096 -113.478563 102 19003ft 387kts
19-Aug-22 18:57 33.319067 -113.354581 99 17741ft 361kts
19-Aug-22 18:58 33.298899 -113.238178 100 16539ft 351kts
19-Aug-22 18:59 33.282163 -113.123534 98 15491ft 344kts
19-Aug-22 19:00 33.274643 -113.010591 85 14266ft 335kts
19-Aug-22 19:01 33.290544 -112.901242 74 12982ft 325kts
19-Aug-22 19:02 33.312376 -112.794087 74 11729ft 318kts
19-Aug-22 19:03 33.332220 -112.696110 75 10353ft 287kts
19-Aug-22 19:04 33.350927 -112.603348 75 8807ft 269kts
19-Aug-22 19:05 33.368532 -112.515394 76 7287ft 240kts
19-Aug-22 19:06 33.383530 -112.440242 76 5800ft 215kts
19-Aug-22 19:07 33.397081 -112.374168 76 4319ft 197kts
19-Aug-22 19:08 33.410640 -112.317074 74 4020ft 171kts
19-Aug-22 19:09 33.424135 -112.267812 71 4019ft 145kts
19-Aug-22 19:11 33.428925 -112.220357 91 4014ft 143kts
19-Aug-22 19:12 33.428831 -112.173908 91 3510ft 132kts
19-Aug-22 19:13 33.428856 -112.130222 91 2820ft 130kts
19-Aug-22 19:14 33.428879 -112.086447 90 2123ft 132kts
19-Aug-22 19:15 33.428846 -112.042451 89 1439ft 131kts
19-Aug-22 19:16 33.428795 -112.007702 98 1121ft 35kts
19-Aug-22 19:17 33.427726 -112.007408 271 1120ft 12kts
19-Aug-22 19:18 33.427714 -112.013363 270 1119ft 23kts
19-Aug-22 19:19 33.427623 -112.021009 221 1117ft 12kts

Navigation Log

Ident Type
Flight plan parsing failed, navigation log unavailable